createdAt,value
2023-04-28T00:00:13.715Z,5.13
2023-04-28T00:02:40.334Z,4.10
2023-04-28T00:05:07.306Z,5.38
2023-04-28T00:07:34.042Z,4.65
2023-04-28T00:10:00.670Z,4.95
2023-04-28T00:12:27.217Z,4.97
2023-04-28T00:14:54.983Z,4.75
2023-04-28T00:17:21.540Z,5.07
2023-04-28T00:19:47.992Z,5.28
2023-04-28T00:22:15.210Z,4.80
2023-04-28T00:24:44.663Z,4.60
2023-04-28T00:27:11.197Z,4.50
2023-04-28T00:29:37.601Z,4.30
2023-04-28T00:32:04.346Z,4.40
2023-04-28T00:34:34.482Z,4.97
2023-04-28T00:37:00.927Z,4.55
2023-04-28T00:39:27.845Z,5.32
2023-04-28T00:41:54.284Z,4.70
2023-04-28T00:44:21.119Z,4.43
2023-04-28T00:46:47.914Z,4.57
2023-04-28T00:49:16.238Z,3.80
2023-04-28T00:51:45.763Z,4.72
2023-04-28T00:54:15.777Z,4.60
2023-04-28T00:56:43.826Z,4.18
2023-04-28T00:59:13.036Z,4.13
2023-04-28T01:01:39.680Z,4.40
2023-04-28T01:04:06.448Z,5.30
2023-04-28T01:06:34.290Z,5.28
2023-04-28T01:09:00.859Z,5.22
2023-04-28T01:11:27.272Z,3.92
2023-04-28T01:13:53.697Z,4.63
2023-04-28T01:16:20.630Z,4.97
2023-04-28T01:18:48.260Z,4.50
2023-04-28T01:21:14.941Z,3.85
2023-04-28T01:23:41.924Z,4.55
2023-04-28T01:26:08.521Z,4.30
2023-04-28T01:28:34.939Z,4.45
2023-04-28T01:31:01.364Z,4.05
2023-04-28T01:33:27.857Z,5.22
2023-04-28T01:35:58.430Z,4.93
2023-04-28T01:38:25.049Z,4.18
2023-04-28T01:40:54.766Z,4.55
2023-04-28T01:43:23.375Z,4.20
2023-04-28T01:45:50.145Z,4.60
2023-04-28T01:48:17.019Z,3.90
2023-04-28T01:50:43.372Z,3.92
2023-04-28T01:53:09.958Z,3.75
2023-04-28T01:55:38.415Z,4.55
2023-04-28T01:58:04.898Z,4.07
2023-04-28T02:00:31.373Z,4.47
2023-04-28T02:02:58.049Z,4.00
2023-04-28T02:05:25.636Z,4.45
2023-04-28T02:07:52.101Z,3.67
2023-04-28T02:10:21.669Z,3.70
2023-04-28T02:12:48.232Z,4.10
2023-04-28T02:15:14.884Z,4.88
2023-04-28T02:17:41.502Z,4.10
2023-04-28T02:20:10.132Z,3.83
2023-04-28T02:22:36.680Z,4.72
2023-04-28T02:25:03.512Z,4.13
2023-04-28T02:27:30.302Z,4.50
2023-04-28T02:29:56.804Z,4.55
2023-04-28T02:32:24.287Z,4.78
2023-04-28T02:34:55.430Z,3.95
2023-04-28T02:37:22.346Z,3.65
2023-04-28T02:39:48.886Z,4.40
2023-04-28T02:42:15.872Z,4.70
2023-04-28T02:44:42.286Z,4.13
2023-04-28T02:47:09.987Z,4.97
2023-04-28T02:49:36.485Z,4.68
2023-04-28T02:52:02.865Z,4.93
2023-04-28T02:54:37.274Z,4.28
2023-04-28T02:57:04.627Z,5.03
2023-04-28T02:59:31.494Z,4.55
2023-04-28T03:01:58.139Z,4.78
2023-04-28T03:04:24.941Z,4.72
2023-04-28T03:06:51.646Z,5.03
2023-04-28T03:09:17.990Z,5.10
2023-04-28T03:11:44.598Z,4.80
2023-04-28T03:14:14.109Z,4.53
2023-04-28T03:16:40.998Z,5.05
2023-04-28T03:19:07.505Z,5.10
2023-04-28T03:21:34.097Z,5.20
2023-04-28T03:24:01.314Z,4.22
2023-04-28T03:26:28.389Z,4.90
2023-04-28T03:28:55.596Z,4.72
2023-04-28T03:31:22.091Z,4.43
2023-04-28T03:33:48.678Z,6.18
2023-04-28T03:36:22.395Z,5.30
2023-04-28T03:38:50.517Z,4.75
2023-04-28T03:41:17.023Z,4.15
2023-04-28T03:43:43.553Z,5.03
2023-04-28T03:46:13.248Z,4.15
2023-04-28T03:48:39.768Z,5.20
2023-04-28T03:51:06.298Z,4.90
2023-04-28T03:53:33.027Z,4.32
2023-04-28T03:55:59.559Z,5.65
2023-04-28T03:58:25.967Z,4.68
2023-04-28T04:00:55.374Z,5.28
2023-04-28T04:03:25.689Z,5.13
2023-04-28T04:05:52.707Z,5.15
2023-04-28T04:08:20.120Z,5.30
2023-04-28T04:10:47.125Z,4.72
2023-04-28T04:13:13.511Z,5.70
2023-04-28T04:15:43.083Z,5.15
2023-04-28T04:18:10.082Z,5.55
2023-04-28T04:20:36.573Z,5.13
2023-04-28T04:23:05.092Z,4.70
2023-04-28T04:25:32.482Z,4.50
2023-04-28T04:28:01.480Z,5.88
2023-04-28T04:30:28.006Z,5.18
2023-04-28T04:32:56.110Z,5.13
2023-04-28T04:35:22.926Z,4.43
2023-04-28T04:37:49.479Z,5.10
2023-04-28T04:40:16.370Z,4.75
2023-04-28T04:42:42.760Z,5.47
2023-04-28T04:45:09.696Z,4.53
2023-04-28T04:47:36.254Z,4.70
2023-04-28T04:50:02.747Z,5.68
2023-04-28T04:52:29.693Z,4.63
2023-04-28T04:54:56.591Z,5.85
2023-04-28T04:57:23.222Z,5.43
2023-04-28T04:59:49.732Z,4.35
2023-04-28T05:02:19.967Z,5.22
2023-04-28T05:04:47.314Z,4.70
2023-04-28T05:07:13.986Z,5.80
2023-04-28T05:09:40.418Z,6.07
2023-04-28T05:12:09.420Z,4.70
2023-04-28T05:14:36.128Z,4.63
2023-04-28T05:17:02.898Z,5.13
2023-04-28T05:19:29.456Z,5.18
2023-04-28T05:21:56.153Z,5.20
2023-04-28T05:24:25.775Z,5.78
2023-04-28T05:26:52.862Z,5.38
2023-04-28T05:29:19.632Z,5.03
2023-04-28T05:31:46.296Z,5.25
2023-04-28T05:34:12.769Z,5.20
2023-04-28T05:36:39.447Z,6.05
2023-04-28T05:39:06.008Z,5.35
2023-04-28T05:41:32.543Z,5.20
2023-04-28T05:43:59.130Z,6.15
2023-04-28T05:46:30.757Z,6.15
2023-04-28T05:48:57.957Z,6.32
2023-04-28T05:51:24.376Z,5.90
2023-04-28T05:53:50.821Z,6.70
2023-04-28T05:56:17.500Z,5.70
2023-04-28T05:58:50.788Z,6.25
2023-04-28T06:01:17.901Z,6.35
2023-04-28T06:03:45.261Z,6.40
2023-04-28T06:06:12.927Z,6.63
2023-04-28T06:08:39.464Z,6.93
2023-04-28T06:11:06.731Z,7.65
2023-04-28T06:13:33.399Z,5.90
2023-04-28T06:15:59.937Z,7.03
2023-04-28T06:18:27.416Z,6.18
2023-04-28T06:20:53.826Z,6.60
2023-04-28T06:23:20.347Z,6.53
2023-04-28T06:25:46.951Z,7.32
2023-04-28T06:28:14.883Z,7.50
2023-04-28T06:30:41.590Z,6.05
2023-04-28T06:33:08.260Z,6.53
2023-04-28T06:35:36.616Z,8.48
2023-04-28T06:38:04.664Z,7.80
2023-04-28T06:40:31.850Z,7.53
2023-04-28T06:42:58.611Z,9.23
2023-04-28T06:45:25.197Z,7.05
2023-04-28T06:47:55.829Z,8.70
2023-04-28T06:50:23.565Z,7.00
2023-04-28T06:52:50.012Z,8.55
2023-04-28T06:55:19.694Z,9.57
2023-04-28T06:57:46.184Z,8.40
2023-04-28T07:00:13.446Z,8.13
2023-04-28T07:02:40.577Z,8.25
2023-04-28T07:05:07.343Z,9.00
2023-04-28T07:07:33.747Z,10.35
2023-04-28T07:10:01.060Z,9.32
2023-04-28T07:12:27.727Z,10.07
2023-04-28T07:14:55.753Z,10.10
2023-04-28T07:17:22.305Z,7.57
2023-04-28T07:19:50.890Z,9.52
2023-04-28T07:22:17.929Z,8.88
2023-04-28T07:24:44.638Z,9.90
2023-04-28T07:27:11.169Z,9.40
2023-04-28T07:29:38.210Z,9.07
2023-04-28T07:32:07.470Z,9.02
2023-04-28T07:34:35.897Z,9.38
2023-04-28T07:37:03.654Z,9.38
2023-04-28T07:39:34.901Z,9.32
2023-04-28T07:42:03.060Z,8.80
2023-04-28T07:44:30.312Z,9.15
2023-04-28T07:46:57.167Z,9.63
2023-04-28T07:49:25.081Z,10.45
2023-04-28T07:51:53.641Z,11.05
2023-04-28T07:54:20.300Z,10.80
2023-04-28T07:56:47.201Z,9.40
2023-04-28T07:59:14.221Z,10.10
2023-04-28T08:01:41.079Z,9.75
2023-04-28T08:04:08.134Z,9.98
2023-04-28T08:06:36.215Z,11.77
2023-04-28T08:09:02.677Z,12.40
2023-04-28T08:11:29.121Z,11.25
2023-04-28T08:14:01.099Z,9.55
2023-04-28T08:16:28.668Z,11.80
2023-04-28T08:18:55.288Z,10.40
2023-04-28T08:21:22.054Z,10.32
2023-04-28T08:23:48.861Z,11.40
2023-04-28T08:26:15.695Z,10.82
2023-04-28T08:28:42.146Z,11.75
2023-04-28T08:31:09.069Z,11.68
2023-04-28T08:33:35.685Z,12.70
2023-04-28T08:36:02.117Z,11.48
2023-04-28T08:38:28.606Z,9.80
2023-04-28T08:40:55.059Z,11.43
2023-04-28T08:43:22.068Z,12.52
2023-04-28T08:45:48.480Z,12.50
2023-04-28T08:48:22.792Z,11.77
2023-04-28T08:50:52.583Z,11.82
2023-04-28T08:53:26.965Z,12.27
2023-04-28T08:55:57.983Z,11.90
2023-04-28T08:58:27.488Z,11.50
2023-04-28T09:00:54.712Z,10.65
2023-04-28T09:03:21.955Z,12.70
2023-04-28T09:05:49.389Z,13.73
2023-04-28T09:08:16.058Z,13.77
2023-04-28T09:10:45.424Z,13.93
2023-04-28T09:13:25.431Z,11.80
2023-04-28T09:15:59.730Z,14.25
2023-04-28T09:18:26.323Z,14.45
2023-04-28T09:20:52.814Z,12.45
2023-04-28T09:23:21.291Z,14.13
2023-04-28T09:25:59.679Z,13.13
2023-04-28T09:28:26.326Z,16.00
2023-04-28T09:30:52.940Z,14.02
2023-04-28T09:33:21.861Z,14.38
2023-04-28T09:35:50.773Z,14.88
2023-04-28T09:38:20.545Z,14.00
2023-04-28T09:40:52.671Z,16.67
2023-04-28T09:45:57.383Z,15.00
2023-04-28T09:48:35.518Z,16.10
2023-04-28T09:51:07.757Z,14.80
2023-04-28T09:53:37.382Z,16.67
2023-04-28T09:56:05.416Z,15.30
2023-04-28T09:58:35.290Z,14.63
2023-04-28T10:01:01.980Z,15.77
2023-04-28T10:03:30.810Z,13.90
2023-04-28T10:05:59.473Z,14.07
2023-04-28T10:08:27.434Z,14.35
2023-04-28T10:10:55.428Z,13.95
2023-04-28T10:13:23.218Z,14.45
2023-04-28T10:15:51.208Z,12.98
2023-04-28T10:18:18.506Z,13.38
2023-04-28T10:20:50.137Z,11.60
2023-04-28T10:23:36.636Z,13.63
2023-04-28T10:26:10.362Z,10.63
2023-04-28T10:28:44.338Z,9.70
2023-04-28T10:31:21.279Z,11.85
2023-04-28T10:33:48.787Z,12.45
2023-04-28T10:36:55.010Z,13.02
2023-04-28T10:39:23.937Z,12.77
2023-04-28T10:41:51.484Z,12.40
2023-04-28T10:44:45.633Z,13.73
2023-04-28T10:47:12.284Z,13.43
2023-04-28T10:50:01.350Z,12.30
2023-04-28T10:52:41.000Z,11.18
2023-04-28T10:55:41.063Z,14.05
2023-04-28T10:58:19.495Z,14.60
2023-04-28T11:00:53.350Z,14.20
2023-04-28T11:03:44.983Z,13.20
2023-04-28T11:06:28.825Z,13.73
2023-04-28T11:09:01.539Z,13.10
2023-04-28T11:11:33.498Z,13.80
2023-04-28T11:14:29.899Z,13.27
2023-04-28T11:17:02.859Z,13.02
2023-04-28T11:19:31.611Z,12.27
2023-04-28T11:21:59.807Z,13.27
2023-04-28T11:24:29.882Z,13.63
2023-04-28T11:26:58.052Z,12.27
2023-04-28T11:29:38.610Z,11.65
2023-04-28T11:32:09.863Z,10.18
2023-04-28T11:34:40.128Z,10.43
2023-04-28T11:37:08.387Z,9.65
2023-04-28T11:39:35.358Z,10.18
2023-04-28T11:42:09.336Z,8.05
2023-04-28T11:44:35.815Z,8.65
2023-04-28T11:47:04.050Z,9.35
2023-04-28T11:49:44.747Z,6.03
2023-04-28T11:52:12.060Z,8.07
2023-04-28T11:54:44.580Z,8.25
2023-04-28T11:57:18.537Z,8.05
2023-04-28T11:59:46.329Z,6.97
2023-04-28T12:02:13.117Z,8.07
2023-04-28T12:04:42.087Z,6.53
2023-04-28T12:07:12.671Z,8.32
2023-04-28T12:09:48.215Z,8.13
2023-04-28T12:12:45.468Z,7.97
2023-04-28T12:15:17.979Z,9.73
2023-04-28T12:17:46.216Z,9.07
2023-04-28T12:20:39.573Z,8.70
2023-04-28T12:23:07.575Z,7.78
2023-04-28T12:25:43.606Z,8.07
2023-04-28T12:28:10.786Z,6.95
2023-04-28T12:30:44.105Z,6.78
2023-04-28T12:33:29.045Z,7.57
2023-04-28T12:35:58.916Z,7.60
2023-04-28T12:38:27.433Z,6.47
2023-04-28T12:40:54.424Z,6.50
2023-04-28T12:43:23.462Z,7.93
2023-04-28T12:45:55.116Z,5.50
2023-04-28T12:48:23.673Z,4.63
2023-04-28T12:50:50.520Z,4.57
2023-04-28T12:53:17.090Z,3.88
2023-04-28T12:55:44.026Z,3.55
2023-04-28T12:58:10.557Z,2.83
2023-04-28T13:00:38.565Z,3.13
2023-04-28T13:03:08.092Z,2.03
2023-04-28T13:05:35.220Z,1.45
2023-04-28T13:08:01.785Z,2.08
2023-04-28T13:10:29.713Z,1.92
2023-04-28T13:12:56.487Z,1.55
2023-04-28T13:15:25.338Z,1.70
2023-04-28T13:17:51.970Z,2.08
2023-04-28T13:20:18.522Z,1.80
2023-04-28T13:22:45.148Z,1.60
2023-04-28T13:25:11.668Z,1.98
2023-04-28T13:27:38.818Z,1.58
2023-04-28T13:30:06.668Z,1.90
2023-04-28T13:32:33.470Z,2.13
2023-04-28T13:34:59.869Z,1.60
2023-04-28T13:37:26.480Z,2.20
2023-04-28T13:39:52.976Z,1.95
2023-04-28T13:42:19.710Z,1.83
2023-04-28T13:44:49.263Z,2.30
2023-04-28T13:47:18.745Z,2.10
2023-04-28T13:49:45.153Z,2.83
2023-04-28T13:52:11.633Z,2.15
2023-04-28T13:54:38.310Z,3.35
2023-04-28T13:57:04.737Z,4.10
2023-04-28T13:59:31.362Z,4.38
2023-04-28T14:01:57.811Z,4.00
2023-04-28T14:04:24.859Z,5.80
2023-04-28T14:06:52.462Z,5.47
2023-04-28T14:09:19.204Z,8.73
2023-04-28T14:11:46.813Z,10.65
2023-04-28T14:14:15.929Z,10.52
2023-04-28T14:16:42.758Z,9.73
2023-04-28T14:19:09.456Z,11.52
2023-04-28T14:21:36.961Z,11.02
2023-04-28T14:24:03.779Z,12.10
2023-04-28T14:26:30.601Z,12.63
2023-04-28T14:28:57.201Z,12.88
2023-04-28T14:31:23.832Z,14.23
2023-04-28T14:33:50.493Z,11.10
2023-04-28T14:36:17.046Z,13.18
2023-04-28T14:38:43.625Z,13.23
2023-04-28T14:41:11.458Z,13.05
2023-04-28T14:43:38.186Z,13.88
2023-04-28T14:46:05.702Z,14.40
2023-04-28T14:48:33.844Z,13.82
2023-04-28T14:51:01.783Z,13.38
2023-04-28T14:53:30.113Z,13.15
2023-04-28T14:56:01.902Z,16.77
2023-04-28T14:58:37.567Z,13.85
2023-04-28T15:01:04.210Z,13.75
2023-04-28T15:03:30.897Z,16.13
2023-04-28T15:05:57.385Z,14.02
2023-04-28T15:08:23.833Z,13.68
2023-04-28T15:10:50.239Z,12.05
2023-04-28T15:13:16.867Z,14.88
2023-04-28T15:15:43.767Z,13.13
2023-04-28T15:18:10.882Z,11.20
2023-04-28T15:20:38.347Z,11.38
2023-04-28T15:23:04.893Z,11.98
2023-04-28T15:25:31.418Z,12.52
2023-04-28T15:27:58.408Z,11.52
2023-04-28T15:30:24.799Z,11.70
2023-04-28T15:32:51.406Z,10.65
2023-04-28T15:35:18.045Z,11.52
2023-04-28T15:37:47.659Z,9.60
2023-04-28T15:40:16.679Z,8.82
2023-04-28T15:42:48.807Z,11.98
2023-04-28T15:45:16.756Z,11.50
2023-04-28T15:47:43.436Z,11.05
2023-04-28T15:50:11.883Z,10.13
2023-04-28T15:52:40.979Z,9.95
2023-04-28T15:55:08.447Z,10.77
2023-04-28T15:57:34.871Z,12.38
2023-04-28T16:00:01.731Z,10.80
2023-04-28T16:02:28.724Z,10.00
2023-04-28T16:04:55.136Z,10.10
2023-04-28T16:07:22.360Z,10.15
2023-04-28T16:09:48.769Z,12.20
2023-04-28T16:12:15.419Z,10.75
2023-04-28T16:14:42.335Z,11.82
2023-04-28T16:17:08.876Z,12.13
2023-04-28T16:19:37.908Z,12.55
2023-04-28T16:22:04.397Z,10.50
2023-04-28T16:24:32.370Z,11.73
2023-04-28T16:26:59.164Z,10.15
2023-04-28T16:29:26.478Z,10.88
2023-04-28T16:31:53.083Z,9.82
2023-04-28T16:34:19.519Z,10.18
2023-04-28T16:36:46.319Z,11.30
2023-04-28T16:39:13.119Z,12.07
2023-04-28T16:41:39.518Z,10.68
2023-04-28T16:44:06.080Z,9.70
2023-04-28T16:46:32.578Z,10.30
2023-04-28T16:48:59.072Z,9.95
2023-04-28T16:51:25.517Z,10.25
2023-04-28T16:53:52.275Z,10.35
2023-04-28T16:56:18.692Z,9.07
2023-04-28T16:58:45.337Z,8.52
2023-04-28T17:01:11.996Z,7.93
2023-04-28T17:03:41.921Z,8.63
2023-04-28T17:06:09.019Z,7.85
2023-04-28T17:08:35.547Z,8.80
2023-04-28T17:11:04.266Z,8.30
2023-04-28T17:13:34.106Z,9.82
2023-04-28T17:16:01.127Z,9.50
2023-04-28T17:18:31.345Z,8.80
2023-04-28T17:20:57.932Z,9.93
2023-04-28T17:23:24.446Z,8.80
2023-04-28T17:25:50.897Z,9.32
2023-04-28T17:28:17.401Z,9.95
2023-04-28T17:30:47.072Z,9.45
2023-04-28T17:33:13.952Z,11.27
2023-04-28T17:35:40.555Z,12.18
2023-04-28T17:38:07.001Z,11.13
2023-04-28T17:40:33.471Z,13.25
2023-04-28T17:42:59.948Z,13.25
2023-04-28T17:45:26.544Z,13.00
2023-04-28T17:47:53.160Z,13.77
2023-04-28T17:50:19.637Z,14.82
2023-04-28T17:52:46.114Z,14.23
2023-04-28T17:55:14.456Z,14.23
2023-04-28T17:57:41.100Z,14.07
2023-04-28T18:00:08.138Z,14.82
2023-04-28T18:02:35.016Z,13.70
2023-04-28T18:05:01.691Z,13.45
2023-04-28T18:07:28.260Z,13.82
2023-04-28T18:09:57.122Z,15.88
2023-04-28T18:12:27.120Z,11.15
2023-04-28T18:14:54.306Z,13.75
2023-04-28T18:17:23.013Z,13.20
2023-04-28T18:19:55.453Z,12.30
2023-04-28T18:22:22.204Z,13.98
2023-04-28T18:24:49.814Z,14.60
2023-04-28T18:27:16.588Z,13.57
2023-04-28T18:29:43.006Z,12.52
2023-04-28T18:32:14.573Z,12.88
2023-04-28T18:37:07.897Z,13.40
2023-04-28T18:39:34.385Z,17.38
2023-04-28T18:42:03.066Z,13.82
2023-04-28T18:44:31.431Z,13.68
2023-04-28T18:47:04.275Z,13.80
2023-04-28T18:49:32.192Z,16.20
2023-04-28T18:52:03.394Z,16.02
2023-04-28T18:54:31.195Z,13.32
2023-04-28T18:56:57.636Z,14.98
2023-04-28T18:59:26.266Z,15.77
2023-04-28T19:01:52.740Z,16.15
2023-04-28T19:04:21.701Z,16.83
2023-04-28T19:06:48.837Z,16.25
2023-04-28T19:09:15.479Z,18.63
2023-04-28T19:11:42.059Z,17.42
2023-04-28T19:14:08.557Z,19.48
2023-04-28T19:16:36.613Z,19.35
2023-04-28T19:19:03.225Z,18.02
2023-04-28T19:21:33.130Z,18.92
2023-04-28T19:23:59.571Z,22.67
2023-04-28T19:26:26.071Z,18.95
2023-04-28T19:28:53.378Z,21.13
2023-04-28T19:31:21.007Z,25.13
2023-04-28T19:33:47.550Z,24.13
2023-04-28T19:36:13.922Z,25.75
2023-04-28T19:38:40.523Z,27.55
2023-04-28T19:41:07.216Z,25.20
2023-04-28T19:43:36.777Z,30.30
2023-04-28T19:46:05.974Z,26.35
2023-04-28T19:48:32.437Z,26.17
2023-04-28T19:50:58.821Z,27.23
2023-04-28T19:53:25.268Z,28.55
2023-04-28T19:55:52.809Z,24.58
2023-04-28T19:58:19.390Z,26.38
2023-04-28T20:00:49.818Z,30.40
2023-04-28T20:03:16.882Z,29.50
2023-04-28T20:05:43.481Z,29.92
2023-04-28T20:08:09.928Z,31.70
2023-04-28T20:10:36.398Z,29.83
2023-04-28T20:13:03.056Z,29.65
2023-04-28T20:15:29.560Z,27.95
2023-04-28T20:17:56.126Z,30.50
2023-04-28T20:20:22.736Z,28.63
2023-04-28T20:22:50.663Z,29.50
2023-04-28T20:25:17.502Z,33.00
2023-04-28T20:27:45.599Z,34.13
2023-04-28T20:30:12.189Z,30.83
2023-04-28T20:32:44.862Z,33.55
2023-04-28T20:35:11.949Z,29.67
2023-04-28T20:37:38.645Z,30.60
2023-04-28T20:40:06.195Z,32.60
2023-04-28T20:42:33.169Z,34.85
2023-04-28T20:44:59.919Z,44.67
2023-04-28T20:47:26.399Z,38.95
2023-04-28T20:49:53.202Z,31.65
2023-04-28T20:52:19.776Z,28.42
2023-04-28T20:54:47.027Z,22.70
2023-04-28T20:57:13.568Z,23.02
2023-04-28T20:59:40.203Z,20.75
2023-04-28T21:02:06.869Z,21.55
2023-04-28T21:04:34.532Z,21.35
2023-04-28T21:07:01.182Z,20.17
2023-04-28T21:09:27.700Z,21.48
2023-04-28T21:11:55.014Z,18.33
2023-04-28T21:14:22.093Z,16.80
2023-04-28T21:16:48.608Z,18.42
2023-04-28T21:19:15.179Z,17.88
2023-04-28T21:21:41.868Z,18.02
2023-04-28T21:24:09.228Z,17.15
2023-04-28T21:26:36.598Z,18.98
2023-04-28T21:29:03.310Z,18.88
2023-04-28T21:31:30.879Z,16.23
2023-04-28T21:33:57.592Z,17.45
2023-04-28T21:36:24.145Z,15.88
2023-04-28T21:38:50.682Z,15.52
2023-04-28T21:41:17.153Z,14.35
2023-04-28T21:43:43.698Z,13.93
2023-04-28T21:46:10.926Z,14.10
2023-04-28T21:48:37.530Z,14.35
2023-04-28T21:51:04.557Z,13.45
2023-04-28T21:53:31.150Z,13.00
2023-04-28T21:55:57.672Z,13.70
2023-04-28T21:58:24.203Z,14.40
2023-04-28T22:00:51.163Z,14.95
2023-04-28T22:03:18.020Z,12.45
2023-04-28T22:05:46.979Z,12.93
2023-04-28T22:08:14.805Z,10.88
2023-04-28T22:10:41.582Z,12.05
2023-04-28T22:13:08.088Z,11.95
2023-04-28T22:15:34.647Z,11.65
2023-04-28T22:18:01.715Z,10.10
2023-04-28T22:20:28.479Z,11.65
2023-04-28T22:22:55.419Z,11.45
2023-04-28T22:25:22.100Z,11.40
2023-04-28T22:27:48.631Z,10.68
2023-04-28T22:30:16.998Z,12.02
2023-04-28T22:32:47.116Z,10.20
2023-04-28T22:35:19.309Z,12.02
2023-04-28T22:37:45.764Z,11.73
2023-04-28T22:40:12.290Z,11.68
2023-04-28T22:42:39.969Z,11.75
2023-04-28T22:45:07.186Z,14.25
2023-04-28T22:47:34.584Z,15.18
2023-04-28T22:50:03.688Z,16.45
2023-04-28T22:52:30.192Z,16.58
2023-04-28T22:54:57.870Z,17.45
2023-04-28T22:57:24.637Z,16.45
2023-04-28T22:59:51.387Z,17.02
2023-04-28T23:02:18.108Z,19.42
2023-04-28T23:04:44.680Z,19.35
2023-04-28T23:07:11.198Z,17.95
2023-04-28T23:09:37.929Z,19.85
2023-04-28T23:12:05.047Z,19.55
2023-04-28T23:14:32.249Z,20.77
2023-04-28T23:16:58.776Z,22.25
2023-04-28T23:19:25.345Z,21.38
2023-04-28T23:21:51.775Z,18.40
2023-04-28T23:24:18.261Z,20.88
2023-04-28T23:26:44.727Z,21.30
2023-04-28T23:29:11.467Z,21.20
2023-04-28T23:31:39.786Z,23.63
2023-04-28T23:34:06.499Z,23.98
2023-04-28T23:36:39.570Z,20.55
2023-04-28T23:39:06.020Z,23.83
2023-04-28T23:41:32.458Z,20.00
2023-04-28T23:43:58.981Z,21.45
2023-04-28T23:46:25.410Z,20.70
2023-04-28T23:48:52.038Z,22.05
2023-04-28T23:51:19.141Z,22.52
2023-04-28T23:53:45.589Z,22.48
2023-04-28T23:56:12.007Z,21.42
2023-04-28T23:58:38.770Z,22.65
